GLO1777 SBKG-SBFN
Flight info
| Callsign | GLO1777 |
|---|---|
| Flight time | 0h 53m |
| Altitude | 33000 |
| Route | JPS DCT UBRUT DCT EDVUP DCT FNR |
| Aircraft | B737/M-SDE2E3FGHIRWXY/LB1 |
Departure
| Time | 2026-05-03 21:05 |
|---|---|
| Airport | Presidente João Suassuna Airport (SBKG) |
Arrival
| Time | 2026-05-03 21:59 |
|---|---|
| Airport | Fernando de Noronha Airport (SBFN) |
| Time | Latitude | Longitude | Altitude | Speed | Heading |
|---|---|---|---|---|---|
| 2026-05-03 20:44 | -7.26932 | -35.89417 | 1632 ft | 0 kts | 259° |
| 2026-05-03 20:45 | -7.26965 | -35.89380 | 1632 ft | 0 kts | 259° |
| 2026-05-03 20:45 | -7.26983 | -35.89215 | 1632 ft | 0 kts | 259° |
| 2026-05-03 21:01 | -7.26984 | -35.89216 | 1632 ft | 1 kts | 259° |
| 2026-05-03 21:01 | -7.27002 | -35.89245 | 1632 ft | 9 kts | 214° |
| 2026-05-03 21:02 | -7.27067 | -35.89266 | 1632 ft | 9 kts | 201° |
| 2026-05-03 21:02 | -7.27138 | -35.89318 | 1632 ft | 16 kts | 238° |
| 2026-05-03 21:02 | -7.27094 | -35.89424 | 1632 ft | 21 kts | 307° |
| 2026-05-03 21:02 | -7.27005 | -35.89559 | 1631 ft | 28 kts | 304° |
| 2026-05-03 21:03 | -7.26889 | -35.89713 | 1633 ft | 15 kts | 305° |
| 2026-05-03 21:03 | -7.26884 | -35.89722 | 1633 ft | 8 kts | 304° |
| 2026-05-03 21:03 | -7.26839 | -35.89784 | 1633 ft | 16 kts | 308° |
| 2026-05-03 21:03 | -7.26767 | -35.89894 | 1634 ft | 22 kts | 306° |
| 2026-05-03 21:04 | -7.26666 | -35.90034 | 1635 ft | 23 kts | 303° |
| 2026-05-03 21:04 | -7.26605 | -35.90151 | 1634 ft | 17 kts | 285° |
| 2026-05-03 21:04 | -7.26576 | -35.90165 | 1634 ft | 5 kts | 39° |
| 2026-05-03 21:04 | -7.26599 | -35.90125 | 1634 ft | 12 kts | 132° |
| 2026-05-03 21:05 | -7.26794 | -35.89842 | 1634 ft | 96 kts | 124° |
| 2026-05-03 21:05 | -7.27344 | -35.89061 | 1674 ft | 172 kts | 126° |
| 2026-05-03 21:05 | -7.28074 | -35.87987 | 2405 ft | 198 kts | 122° |
| 2026-05-03 21:05 | -7.28805 | -35.86771 | 3289 ft | 212 kts | 119° |
| 2026-05-03 21:06 | -7.29161 | -35.85269 | 3782 ft | 233 kts | 86° |
| 2026-05-03 21:06 | -7.28943 | -35.83762 | 4176 ft | 254 kts | 82° |
| 2026-05-03 21:06 | -7.28637 | -35.81939 | 4830 ft | 269 kts | 82° |
| 2026-05-03 21:06 | -7.28319 | -35.80081 | 5926 ft | 270 kts | 82° |
| 2026-05-03 21:07 | -7.27997 | -35.78205 | 6981 ft | 273 kts | 82° |
| 2026-05-03 21:07 | -7.27675 | -35.76302 | 7944 ft | 279 kts | 82° |
| 2026-05-03 21:07 | -7.27347 | -35.74358 | 8880 ft | 284 kts | 82° |
| 2026-05-03 21:07 | -7.27036 | -35.72511 | 9722 ft | 289 kts | 81° |
| 2026-05-03 21:08 | -7.26698 | -35.70494 | 10495 ft | 299 kts | 81° |
| 2026-05-03 21:08 | -7.26337 | -35.68337 | 10748 ft | 326 kts | 81° |
| 2026-05-03 21:08 | -7.25943 | -35.65987 | 10954 ft | 353 kts | 81° |
| 2026-05-03 21:08 | -7.25522 | -35.63468 | 11141 ft | 375 kts | 81° |
| 2026-05-03 21:09 | -7.25081 | -35.60825 | 11585 ft | 387 kts | 81° |
| 2026-05-03 21:09 | -7.24631 | -35.58133 | 12227 ft | 392 kts | 81° |
| 2026-05-03 21:09 | -7.24178 | -35.55421 | 12902 ft | 395 kts | 81° |
| 2026-05-03 21:09 | -7.23736 | -35.52785 | 13565 ft | 397 kts | 81° |
| 2026-05-03 21:10 | -7.23275 | -35.50033 | 14246 ft | 399 kts | 81° |
| 2026-05-03 21:10 | -7.22812 | -35.47265 | 14860 ft | 402 kts | 81° |
| 2026-05-03 21:10 | -7.22346 | -35.44474 | 15442 ft | 405 kts | 81° |
| 2026-05-03 21:10 | -7.21896 | -35.41780 | 16006 ft | 407 kts | 81° |
| 2026-05-03 21:11 | -7.21424 | -35.38955 | 16562 ft | 410 kts | 81° |
| 2026-05-03 21:11 | -7.20948 | -35.36110 | 17084 ft | 413 kts | 81° |
| 2026-05-03 21:11 | -7.20470 | -35.33253 | 17611 ft | 415 kts | 81° |
| 2026-05-03 21:11 | -7.19989 | -35.30377 | 18073 ft | 418 kts | 81° |
| 2026-05-03 21:12 | -7.19503 | -35.27477 | 18523 ft | 421 kts | 81° |
| 2026-05-03 21:12 | -7.19014 | -35.24563 | 18959 ft | 424 kts | 81° |
| 2026-05-03 21:12 | -7.18523 | -35.21631 | 19367 ft | 427 kts | 81° |
| 2026-05-03 21:12 | -7.18026 | -35.18670 | 19749 ft | 430 kts | 81° |
| 2026-05-03 21:13 | -7.17526 | -35.15690 | 20097 ft | 433 kts | 81° |
| 2026-05-03 21:13 | -7.17022 | -35.12689 | 20453 ft | 436 kts | 81° |
| 2026-05-03 21:13 | -7.16515 | -35.09671 | 20847 ft | 438 kts | 81° |
| 2026-05-03 21:13 | -7.16033 | -35.06798 | 21206 ft | 439 kts | 81° |
| 2026-05-03 21:14 | -7.15574 | -35.04066 | 21497 ft | 441 kts | 81° |
| 2026-05-03 21:14 | -7.15059 | -35.01005 | 21804 ft | 444 kts | 81° |
| 2026-05-03 21:14 | -7.14396 | -34.98003 | 22101 ft | 446 kts | 72° |
| 2026-05-03 21:14 | -7.13105 | -34.95156 | 22420 ft | 449 kts | 60° |
| 2026-05-03 21:15 | -7.11302 | -34.92587 | 22711 ft | 452 kts | 50° |
| 2026-05-03 21:15 | -7.09063 | -34.90354 | 22973 ft | 455 kts | 44° |
| 2026-05-03 21:15 | -7.06727 | -34.88192 | 23220 ft | 457 kts | 43° |
| 2026-05-03 21:15 | -7.04371 | -34.86030 | 23462 ft | 459 kts | 43° |
| 2026-05-03 21:16 | -7.02004 | -34.83852 | 23733 ft | 460 kts | 44° |
| 2026-05-03 21:16 | -6.99644 | -34.81664 | 23972 ft | 462 kts | 44° |
| 2026-05-03 21:16 | -6.97284 | -34.79462 | 24199 ft | 463 kts | 44° |
| 2026-05-03 21:16 | -6.94969 | -34.77291 | 24398 ft | 465 kts | 44° |
| 2026-05-03 21:17 | -6.92595 | -34.75058 | 24599 ft | 467 kts | 44° |
| 2026-05-03 21:17 | -6.91020 | -34.73575 | 24735 ft | 468 kts | 44° |
| 2026-05-03 21:17 | -6.87833 | -34.70571 | 24995 ft | 470 kts | 44° |
| 2026-05-03 21:17 | -6.85442 | -34.68319 | 25182 ft | 472 kts | 44° |
| 2026-05-03 21:18 | -6.83066 | -34.66082 | 25371 ft | 474 kts | 44° |
| 2026-05-03 21:18 | -6.80624 | -34.63784 | 25566 ft | 475 kts | 44° |
| 2026-05-03 21:18 | -6.78201 | -34.61504 | 25729 ft | 477 kts | 44° |
| 2026-05-03 21:18 | -6.75892 | -34.59332 | 25883 ft | 479 kts | 44° |
| 2026-05-03 21:19 | -6.73453 | -34.57038 | 26058 ft | 481 kts | 44° |
| 2026-05-03 21:19 | -6.71002 | -34.54733 | 26228 ft | 482 kts | 44° |
| 2026-05-03 21:19 | -6.68549 | -34.52428 | 26376 ft | 484 kts | 44° |
| 2026-05-03 21:19 | -6.66078 | -34.50105 | 26534 ft | 485 kts | 44° |
| 2026-05-03 21:20 | -6.63609 | -34.47785 | 26670 ft | 487 kts | 44° |
| 2026-05-03 21:20 | -6.61129 | -34.45455 | 26834 ft | 489 kts | 44° |
| 2026-05-03 21:20 | -6.58642 | -34.43118 | 26987 ft | 490 kts | 44° |
| 2026-05-03 21:20 | -6.56145 | -34.40771 | 27123 ft | 492 kts | 44° |
| 2026-05-03 21:21 | -6.53640 | -34.38418 | 27257 ft | 493 kts | 43° |
| 2026-05-03 21:21 | -6.51129 | -34.36059 | 27400 ft | 494 kts | 43° |
| 2026-05-03 21:21 | -6.48615 | -34.33698 | 27534 ft | 496 kts | 43° |
| 2026-05-03 21:21 | -6.46087 | -34.31325 | 27662 ft | 497 kts | 43° |
| 2026-05-03 21:22 | -6.43558 | -34.28950 | 27822 ft | 497 kts | 43° |
| 2026-05-03 21:22 | -6.41032 | -34.26578 | 28022 ft | 496 kts | 43° |
| 2026-05-03 21:22 | -6.38510 | -34.24212 | 28226 ft | 496 kts | 43° |
| 2026-05-03 21:22 | -6.36024 | -34.21878 | 28409 ft | 496 kts | 43° |
| 2026-05-03 21:23 | -6.33500 | -34.19509 | 28566 ft | 497 kts | 43° |
| 2026-05-03 21:23 | -6.30967 | -34.17133 | 28748 ft | 497 kts | 43° |
| 2026-05-03 21:23 | -6.28438 | -34.14761 | 28980 ft | 497 kts | 43° |
| 2026-05-03 21:23 | -6.25905 | -34.12385 | 29173 ft | 497 kts | 43° |
| 2026-05-03 21:24 | -6.23374 | -34.10013 | 29369 ft | 498 kts | 43° |
| 2026-05-03 21:24 | -6.20840 | -34.07636 | 29586 ft | 498 kts | 43° |
| 2026-05-03 21:24 | -6.18307 | -34.05262 | 29837 ft | 497 kts | 43° |
| 2026-05-03 21:24 | -6.15825 | -34.02935 | 30073 ft | 497 kts | 43° |
| 2026-05-03 21:25 | -6.13295 | -34.00564 | 30302 ft | 497 kts | 43° |
| 2026-05-03 21:25 | -6.10797 | -33.98223 | 30566 ft | 497 kts | 43° |
| 2026-05-03 21:25 | -6.08277 | -33.95862 | 30880 ft | 494 kts | 43° |
| 2026-05-03 21:25 | -6.05763 | -33.93507 | 31197 ft | 493 kts | 43° |
| 2026-05-03 21:26 | -6.03252 | -33.91154 | 31522 ft | 491 kts | 43° |
| 2026-05-03 21:26 | -6.00759 | -33.88820 | 31810 ft | 490 kts | 43° |
| 2026-05-03 21:26 | -5.99105 | -33.87272 | 32020 ft | 489 kts | 43° |
| 2026-05-03 21:26 | -5.96610 | -33.84935 | 32341 ft | 488 kts | 42° |
| 2026-05-03 21:27 | -5.94135 | -33.82617 | 32676 ft | 486 kts | 42° |
| 2026-05-03 21:27 | -5.91665 | -33.80304 | 32961 ft | 485 kts | 42° |
| 2026-05-03 21:27 | -5.86704 | -33.75660 | 32961 ft | 486 kts | 42° |
| 2026-05-03 21:28 | -5.81800 | -33.71071 | 32968 ft | 483 kts | 42° |
| 2026-05-03 21:28 | -5.76883 | -33.66471 | 32960 ft | 483 kts | 42° |
| 2026-05-03 21:29 | -5.71969 | -33.61875 | 32960 ft | 482 kts | 42° |
| 2026-05-03 21:29 | -5.67058 | -33.57281 | 32953 ft | 482 kts | 42° |
| 2026-05-03 21:30 | -5.62148 | -33.52689 | 32955 ft | 482 kts | 42° |
| 2026-05-03 21:30 | -5.57278 | -33.48138 | 32953 ft | 483 kts | 42° |
| 2026-05-03 21:31 | -5.52353 | -33.43536 | 32955 ft | 484 kts | 42° |
| 2026-05-03 21:31 | -5.47478 | -33.38980 | 32952 ft | 484 kts | 42° |
| 2026-05-03 21:32 | -5.42571 | -33.34396 | 32953 ft | 484 kts | 42° |
| 2026-05-03 21:32 | -5.37387 | -33.30111 | 32957 ft | 483 kts | 32° |
| 2026-05-03 21:33 | -5.31683 | -33.26545 | 32953 ft | 483 kts | 31° |
| 2026-05-03 21:33 | -5.25954 | -33.23019 | 32955 ft | 483 kts | 31° |
| 2026-05-03 21:34 | -5.20248 | -33.19438 | 32946 ft | 483 kts | 32° |
| 2026-05-03 21:34 | -5.14559 | -33.15830 | 32946 ft | 484 kts | 32° |
| 2026-05-03 21:35 | -5.08906 | -33.12238 | 32945 ft | 484 kts | 32° |
| 2026-05-03 21:35 | -5.03219 | -33.08629 | 32945 ft | 484 kts | 32° |
| 2026-05-03 21:36 | -4.97532 | -33.05021 | 32944 ft | 484 kts | 32° |
| 2026-05-03 21:36 | -4.91813 | -33.01396 | 32339 ft | 491 kts | 32° |
| 2026-05-03 21:37 | -4.88934 | -32.99571 | 31540 ft | 488 kts | 32° |
| 2026-05-03 21:37 | -4.86066 | -32.97754 | 30618 ft | 488 kts | 32° |
| 2026-05-03 21:37 | -4.83195 | -32.95934 | 29656 ft | 488 kts | 32° |
| 2026-05-03 21:37 | -4.80322 | -32.94115 | 28620 ft | 489 kts | 32° |
| 2026-05-03 21:38 | -4.77442 | -32.92290 | 27498 ft | 490 kts | 32° |
| 2026-05-03 21:38 | -4.74555 | -32.90460 | 26318 ft | 492 kts | 33° |
| 2026-05-03 21:38 | -4.71659 | -32.88624 | 25338 ft | 488 kts | 33° |
| 2026-05-03 21:38 | -4.68818 | -32.86824 | 24482 ft | 481 kts | 33° |
| 2026-05-03 21:39 | -4.66041 | -32.85065 | 23627 ft | 475 kts | 33° |
| 2026-05-03 21:39 | -4.63266 | -32.83307 | 22786 ft | 468 kts | 33° |
| 2026-05-03 21:39 | -4.60533 | -32.81578 | 21951 ft | 461 kts | 33° |
| 2026-05-03 21:39 | -4.57774 | -32.79960 | 21048 ft | 457 kts | 30° |
| 2026-05-03 21:40 | -4.54974 | -32.78489 | 20195 ft | 451 kts | 27° |
| 2026-05-03 21:40 | -4.52189 | -32.77093 | 19362 ft | 445 kts | 27° |
| 2026-05-03 21:40 | -4.49433 | -32.75726 | 18543 ft | 439 kts | 27° |
| 2026-05-03 21:40 | -4.46721 | -32.74370 | 17737 ft | 433 kts | 27° |
| 2026-05-03 21:41 | -4.44053 | -32.73022 | 16939 ft | 427 kts | 27° |
| 2026-05-03 21:41 | -4.41425 | -32.71683 | 16157 ft | 421 kts | 28° |
| 2026-05-03 21:41 | -4.38825 | -32.70348 | 15381 ft | 416 kts | 28° |
| 2026-05-03 21:41 | -4.36262 | -32.69026 | 14610 ft | 412 kts | 28° |
| 2026-05-03 21:42 | -4.33724 | -32.67716 | 13850 ft | 406 kts | 28° |
| 2026-05-03 21:42 | -4.31216 | -32.66429 | 13104 ft | 402 kts | 28° |
| 2026-05-03 21:42 | -4.28737 | -32.65153 | 12394 ft | 400 kts | 28° |
| 2026-05-03 21:42 | -4.26281 | -32.63886 | 11834 ft | 394 kts | 29° |
| 2026-05-03 21:43 | -4.23845 | -32.62634 | 11254 ft | 389 kts | 29° |
| 2026-05-03 21:43 | -4.21487 | -32.61422 | 10938 ft | 374 kts | 28° |
| 2026-05-03 21:43 | -4.19226 | -32.60255 | 10764 ft | 358 kts | 29° |
| 2026-05-03 21:43 | -4.17087 | -32.59152 | 10608 ft | 342 kts | 28° |
| 2026-05-03 21:44 | -4.15016 | -32.58089 | 10457 ft | 327 kts | 29° |
| 2026-05-03 21:44 | -4.13022 | -32.57062 | 10319 ft | 318 kts | 29° |
| 2026-05-03 21:44 | -4.11113 | -32.56057 | 10197 ft | 305 kts | 29° |
| 2026-05-03 21:44 | -4.09253 | -32.55101 | 10023 ft | 295 kts | 29° |
| 2026-05-03 21:45 | -4.07419 | -32.54163 | 9360 ft | 295 kts | 29° |
| 2026-05-03 21:45 | -4.05598 | -32.53229 | 8747 ft | 294 kts | 28° |
| 2026-05-03 21:45 | -4.03776 | -32.52296 | 8119 ft | 293 kts | 28° |
| 2026-05-03 21:45 | -4.01966 | -32.51368 | 7489 ft | 291 kts | 29° |
| 2026-05-03 21:46 | -4.00167 | -32.50443 | 6880 ft | 290 kts | 29° |
| 2026-05-03 21:46 | -3.98375 | -32.49521 | 6270 ft | 289 kts | 29° |
| 2026-05-03 21:46 | -3.96630 | -32.48624 | 6022 ft | 275 kts | 29° |
| 2026-05-03 21:46 | -3.94961 | -32.47766 | 5756 ft | 264 kts | 29° |
| 2026-05-03 21:47 | -3.93353 | -32.46939 | 5516 ft | 254 kts | 29° |
| 2026-05-03 21:47 | -3.91851 | -32.46167 | 5417 ft | 233 kts | 29° |
| 2026-05-03 21:47 | -3.90470 | -32.45459 | 5287 ft | 213 kts | 29° |
| 2026-05-03 21:47 | -3.89202 | -32.44808 | 4997 ft | 205 kts | 30° |
| 2026-05-03 21:48 | -3.87941 | -32.44158 | 4612 ft | 203 kts | 30° |
| 2026-05-03 21:48 | -3.86655 | -32.43599 | 4225 ft | 203 kts | 12° |
| 2026-05-03 21:48 | -3.85298 | -32.43851 | 4017 ft | 198 kts | 327° |
| 2026-05-03 21:48 | -3.84323 | -32.44812 | 4000 ft | 199 kts | 308° |
| 2026-05-03 21:49 | -3.83528 | -32.45897 | 3977 ft | 188 kts | 306° |
| 2026-05-03 21:49 | -3.82787 | -32.46943 | 3982 ft | 182 kts | 306° |
| 2026-05-03 21:49 | -3.82054 | -32.47975 | 3997 ft | 182 kts | 306° |
| 2026-05-03 21:49 | -3.81341 | -32.48974 | 4007 ft | 183 kts | 306° |
| 2026-05-03 21:50 | -3.80598 | -32.50009 | 4008 ft | 184 kts | 306° |
| 2026-05-03 21:50 | -3.79845 | -32.51054 | 4008 ft | 186 kts | 306° |
| 2026-05-03 21:50 | -3.79087 | -32.52103 | 4021 ft | 186 kts | 306° |
| 2026-05-03 21:50 | -3.78326 | -32.53153 | 4013 ft | 187 kts | 306° |
| 2026-05-03 21:51 | -3.77559 | -32.54210 | 4003 ft | 186 kts | 306° |
| 2026-05-03 21:51 | -3.76802 | -32.55254 | 3987 ft | 182 kts | 306° |
| 2026-05-03 21:51 | -3.76065 | -32.56267 | 3998 ft | 179 kts | 306° |
| 2026-05-03 21:51 | -3.75517 | -32.57377 | 3983 ft | 181 kts | 274° |
| 2026-05-03 21:52 | -3.75828 | -32.58542 | 3960 ft | 177 kts | 229° |
| 2026-05-03 21:52 | -3.76834 | -32.59175 | 3802 ft | 168 kts | 188° |
| 2026-05-03 21:52 | -3.77964 | -32.59310 | 3651 ft | 160 kts | 181° |
| 2026-05-03 21:52 | -3.79008 | -32.59388 | 3529 ft | 154 kts | 181° |
| 2026-05-03 21:53 | -3.80085 | -32.59466 | 3447 ft | 157 kts | 181° |
| 2026-05-03 21:53 | -3.81175 | -32.59544 | 3394 ft | 158 kts | 181° |
| 2026-05-03 21:53 | -3.82266 | -32.59625 | 3360 ft | 157 kts | 181° |
| 2026-05-03 21:53 | -3.83332 | -32.59552 | 3301 ft | 150 kts | 153° |
| 2026-05-03 21:54 | -3.83888 | -32.58774 | 3268 ft | 141 kts | 101° |
| 2026-05-03 21:54 | -3.84061 | -32.57802 | 3083 ft | 139 kts | 102° |
| 2026-05-03 21:54 | -3.84228 | -32.56887 | 2894 ft | 130 kts | 101° |
| 2026-05-03 21:54 | -3.84346 | -32.56018 | 2737 ft | 127 kts | 99° |
| 2026-05-03 21:55 | -3.84440 | -32.55137 | 2569 ft | 128 kts | 98° |
| 2026-05-03 21:55 | -3.84521 | -32.54250 | 2403 ft | 128 kts | 97° |
| 2026-05-03 21:55 | -3.84596 | -32.53363 | 2231 ft | 128 kts | 97° |
| 2026-05-03 21:55 | -3.84667 | -32.52475 | 2061 ft | 128 kts | 97° |
| 2026-05-03 21:56 | -3.84736 | -32.51586 | 1891 ft | 128 kts | 97° |
| 2026-05-03 21:56 | -3.84804 | -32.50699 | 1721 ft | 128 kts | 97° |
| 2026-05-03 21:56 | -3.84872 | -32.49813 | 1551 ft | 128 kts | 97° |
| 2026-05-03 21:56 | -3.84940 | -32.48929 | 1384 ft | 127 kts | 97° |
| 2026-05-03 21:57 | -3.85008 | -32.48040 | 1216 ft | 128 kts | 97° |
| 2026-05-03 21:57 | -3.85075 | -32.47150 | 1044 ft | 128 kts | 97° |
| 2026-05-03 21:57 | -3.85143 | -32.46265 | 872 ft | 127 kts | 97° |
| 2026-05-03 21:57 | -3.85209 | -32.45383 | 701 ft | 127 kts | 96° |
| 2026-05-03 21:58 | -3.85277 | -32.44498 | 535 ft | 127 kts | 96° |
| 2026-05-03 21:58 | -3.85344 | -32.43613 | 340 ft | 128 kts | 96° |
| 2026-05-03 21:58 | -3.85411 | -32.42768 | 184 ft | 126 kts | 92° |
| 2026-05-03 21:58 | -3.85446 | -32.42176 | 197 ft | 62 kts | 93° |
| 2026-05-03 21:59 | -3.85477 | -32.41774 | 202 ft | 47 kts | 94° |
| 2026-05-03 21:59 | -3.85484 | -32.41567 | 206 ft | 14 kts | 92° |
| 2026-05-03 21:59 | -3.85506 | -32.41501 | 198 ft | 12 kts | 220° |
| 2026-05-03 21:59 | -3.85501 | -32.41624 | 208 ft | 24 kts | 274° |
| 2026-05-03 22:00 | -3.85484 | -32.41833 | 208 ft | 35 kts | 273° |
| 2026-05-03 22:00 | -3.85465 | -32.42052 | 207 ft | 31 kts | 274° |
| 2026-05-03 22:00 | -3.85448 | -32.42268 | 193 ft | 25 kts | 275° |
| 2026-05-03 22:00 | -3.85436 | -32.42458 | 198 ft | 25 kts | 276° |
| 2026-05-03 22:01 | -3.85422 | -32.42615 | 185 ft | 15 kts | 276° |
| 2026-05-03 22:01 | -3.85419 | -32.42716 | 183 ft | 13 kts | 248° |
| 2026-05-03 22:01 | -3.85503 | -32.42760 | 178 ft | 11 kts | 202° |
| 2026-05-03 22:01 | -3.85519 | -32.42766 | 177 ft | 0 kts | 199° |